Time;durP1;ratioP1;P1;durP2;ratioP2;P2;SDS_P1;SDS_P2;PMS_P1;PMS_P2;Temp;Humidity;BMP_temperature;BMP_pressure;BME280_temperature;BME280_humidity;BME280_pressure;Samples;Min_cycle;Max_cycle;Signal;HPM_P1;HPM_P2
2023/11/14 00:02:13;;;;;;;0.98;0.90;;;;;;;3.85;81.41;97356.22;5114285;28;20202;-58
2023/11/14 00:04:39;;;;;;;1.40;0.70;;;;;;;3.87;81.38;97363.84;5125082;27;20035;-61
2023/11/14 00:07:06;;;;;;;0.85;0.70;;;;;;;3.83;80.95;97355.66;5134881;27;20047;-59
2023/11/14 00:09:32;;;;;;;0.65;0.65;;;;;;;3.94;81.45;97358.41;5116384;27;20035;-60
2023/11/14 00:11:58;;;;;;;1.33;0.90;;;;;;;3.97;80.81;97363.16;5134791;27;20047;-59
2023/11/14 00:14:24;;;;;;;0.80;0.80;;;;;;;3.92;81.54;97358.66;5132829;27;20500;-58
2023/11/14 00:16:50;;;;;;;0.80;0.80;;;;;;;3.87;81.01;97355.97;5134338;27;20487;-57
2023/11/14 00:19:15;;;;;;;1.02;0.80;;;;;;;3.90;81.50;97365.19;5134152;27;20039;-60
2023/11/14 00:21:41;;;;;;;0.93;0.70;;;;;;;3.95;81.15;97360.00;5134343;27;20500;-58
2023/11/14 00:24:09;;;;;;;2.55;0.80;;;;;;;3.96;80.97;97351.09;5133167;27;20164;-57
2023/11/14 00:26:35;;;;;;;0.80;0.80;;;;;;;3.96;81.57;97358.97;5134498;27;20035;-60
2023/11/14 00:29:00;;;;;;;0.98;0.93;;;;;;;4.05;80.99;97357.50;5134334;27;20055;-55
2023/11/14 00:31:27;;;;;;;0.70;0.70;;;;;;;4.07;80.88;97360.66;5134385;27;20038;-60
2023/11/14 00:33:52;;;;;;;1.33;0.77;;;;;;;4.12;81.70;97363.34;5133121;27;20051;-59
2023/11/14 00:36:19;;;;;;;0.90;0.90;;;;;;;4.11;81.78;97356.50;5133206;27;20392;-59
2023/11/14 00:38:44;;;;;;;1.27;0.80;;;;;;;4.13;81.62;97359.69;5134499;27;20484;-59
2023/11/14 00:41:10;;;;;;;0.90;0.90;;;;;;;4.14;81.34;97356.00;5131771;27;20043;-60
2023/11/14 00:43:36;;;;;;;0.80;0.80;;;;;;;4.17;81.01;97360.78;5132141;27;20480;-57
2023/11/14 00:46:01;;;;;;;0.80;0.80;;;;;;;4.23;81.49;97351.13;5133694;27;20059;-60
2023/11/14 00:48:27;;;;;;;0.90;0.90;;;;;;;4.20;80.89;97360.28;5132610;27;20043;-58
2023/11/14 00:50:53;;;;;;;0.73;0.73;;;;;;;4.16;80.44;97361.03;5133956;27;20049;-59
2023/11/14 00:53:21;;;;;;;0.80;0.80;;;;;;;4.20;80.34;97362.09;5132792;27;20412;-59
2023/11/14 00:55:47;;;;;;;0.77;0.77;;;;;;;4.21;81.14;97356.63;5133401;27;20615;-60
2023/11/14 00:58:12;;;;;;;0.80;0.80;;;;;;;4.21;80.97;97358.47;5134309;27;20047;-60
2023/11/14 01:00:38;;;;;;;0.90;0.90;;;;;;;4.12;80.33;97358.09;5126901;27;20540;-59
2023/11/14 01:03:04;;;;;;;0.70;0.70;;;;;;;4.19;80.60;97358.69;5132822;27;20136;-58
2023/11/14 01:05:30;;;;;;;0.70;0.70;;;;;;;4.27;80.74;97360.91;5133234;27;20506;-58
2023/11/14 01:07:55;;;;;;;0.70;0.70;;;;;;;4.23;80.07;97359.00;5132712;27;20522;-59
2023/11/14 01:10:21;;;;;;;0.70;0.70;;;;;;;4.23;80.63;97361.63;5133649;27;20061;-61
2023/11/14 01:12:47;;;;;;;0.90;0.90;;;;;;;4.22;80.49;97365.28;5134092;27;20051;-57
2023/11/14 01:15:13;;;;;;;0.80;0.80;;;;;;;4.16;80.17;97353.94;5133553;27;20062;-59
2023/11/14 01:17:39;;;;;;;0.90;0.90;;;;;;;4.14;80.51;97357.84;5132471;27;20130;-59
2023/11/14 01:20:06;;;;;;;0.70;0.70;;;;;;;4.17;80.44;97352.13;5132440;27;20035;-60
2023/11/14 01:22:34;;;;;;;0.85;0.80;;;;;;;4.17;80.52;97358.16;5132318;27;20080;-58
2023/11/14 01:25:00;;;;;;;0.80;0.80;;;;;;;4.15;81.49;97362.88;5132540;27;20046;-59
2023/11/14 01:27:26;;;;;;;0.80;0.80;;;;;;;4.23;81.41;97359.78;5131952;27;20043;-58
2023/11/14 01:29:52;;;;;;;0.85;0.85;;;;;;;4.23;80.56;97359.00;5133015;27;20054;-60
2023/11/14 01:32:17;;;;;;;0.90;0.90;;;;;;;4.25;81.17;97362.97;5131532;27;20074;-59
2023/11/14 01:34:43;;;;;;;0.77;0.77;;;;;;;4.28;80.40;97341.50;5133367;27;20039;-60
2023/11/14 01:37:09;;;;;;;0.75;0.75;;;;;;;4.34;80.99;97352.81;5097990;27;20050;-59
2023/11/14 01:39:35;;;;;;;0.98;0.98;;;;;;;4.40;81.11;97353.66;5133532;27;20035;-61
2023/11/14 01:42:01;;;;;;;1.85;0.90;;;;;;;4.35;80.08;97358.84;5133017;27;20377;-59
2023/11/14 01:44:27;;;;;;;0.73;0.73;;;;;;;4.34;80.36;97360.69;5132966;27;20031;-58
2023/11/14 01:46:53;;;;;;;0.80;0.80;;;;;;;4.31;80.61;97364.59;5127091;27;20423;-58
2023/11/14 01:49:19;;;;;;;0.80;0.80;;;;;;;4.24;81.59;97358.75;5111262;28;20532;-61
2023/11/14 01:51:45;;;;;;;2.53;1.00;;;;;;;4.27;80.95;97367.97;5093987;28;20035;-58
2023/11/14 01:54:11;;;;;;;0.85;0.85;;;;;;;4.25;81.53;97367.41;5112362;28;20717;-59
2023/11/14 01:56:37;;;;;;;0.85;0.85;;;;;;;4.28;80.91;97370.34;5111064;28;20054;-57
2023/11/14 01:59:03;;;;;;;0.70;0.70;;;;;;;4.24;80.94;97377.13;5113387;27;20473;-58
2023/11/14 02:01:30;;;;;;;0.80;0.80;;;;;;;4.20;81.84;97365.53;5093454;28;20036;-60
2023/11/14 02:03:55;;;;;;;0.90;0.90;;;;;;;4.22;82.23;97367.91;5110976;28;20040;-57
2023/11/14 02:06:21;;;;;;;0.80;0.80;;;;;;;4.21;81.71;97369.75;5112190;28;20077;-60
2023/11/14 02:08:47;;;;;;;0.90;0.90;;;;;;;4.15;82.03;97375.97;5125361;27;20055;-57
2023/11/14 02:11:12;;;;;;;0.77;0.77;;;;;;;4.15;82.38;97372.53;5132899;27;20039;-60
2023/11/14 02:13:43;;;;;;;1.30;0.90;;;;;;;4.10;82.99;97365.41;5114333;27;20456;-59
2023/11/14 02:16:09;;;;;;;1.70;1.42;;;;;;;4.19;82.92;97371.03;5114727;27;20522;-56
2023/11/14 02:18:36;;;;;;;0.85;0.85;;;;;;;4.21;82.06;97382.06;5132805;27;20096;-59
2023/11/14 02:21:02;;;;;;;1.10;1.00;;;;;;;4.20;82.61;97370.75;5132798;27;20066;-58
2023/11/14 02:23:31;;;;;;;1.10;1.00;;;;;;;4.21;83.18;97382.88;5131363;27;20039;-60
2023/11/14 02:25:57;;;;;;;0.88;0.88;;;;;;;4.24;82.89;97377.13;5131437;27;20039;-57
2023/11/14 02:28:24;;;;;;;0.95;0.95;;;;;;;4.29;82.07;97379.81;5130545;27;20039;-58
2023/11/14 02:30:50;;;;;;;0.90;0.90;;;;;;;4.27;81.66;97387.13;5131548;27;20054;-59
2023/11/14 02:33:16;;;;;;;1.05;0.90;;;;;;;4.20;81.49;97383.88;5114029;28;20056;-59
2023/11/14 02:35:42;;;;;;;0.80;0.80;;;;;;;4.14;81.79;97377.00;5131122;27;20527;-60
2023/11/14 02:38:09;;;;;;;0.80;0.80;;;;;;;4.08;81.74;97386.63;5131510;27;20550;-59
2023/11/14 02:40:36;;;;;;;0.60;0.60;;;;;;;3.99;82.45;97384.69;5131185;28;20134;-60
2023/11/14 02:43:02;;;;;;;0.70;0.70;;;;;;;4.00;82.23;97384.44;5131247;28;20480;-60
2023/11/14 02:45:29;;;;;;;0.77;0.77;;;;;;;4.09;82.11;97385.59;5132431;27;20130;-59
2023/11/14 02:47:55;;;;;;;0.60;0.60;;;;;;;4.10;82.34;97391.63;5113838;28;20045;-59
2023/11/14 02:50:59;;;;;;;0.70;0.70;;;;;;;4.03;82.48;97394.44;5132327;27;20091;-59
2023/11/14 02:53:25;;;;;;;0.70;0.70;;;;;;;4.03;83.57;97396.25;5068701;28;20105;-59
2023/11/14 02:55:51;;;;;;;0.70;0.70;;;;;;;3.87;83.61;97375.09;5051768;28;20052;-58
2023/11/14 02:58:18;;;;;;;1.02;0.80;;;;;;;3.84;84.77;97393.16;5087197;28;20051;-59
2023/11/14 03:00:46;;;;;;;0.70;0.70;;;;;;;3.82;85.16;97390.78;5116961;28;20127;-57
2023/11/14 03:03:15;;;;;;;0.80;0.80;;;;;;;3.84;85.72;97393.94;5111988;28;20050;-58
2023/11/14 03:05:42;;;;;;;0.90;0.90;;;;;;;3.80;84.76;97392.06;5107394;28;20042;-55
2023/11/14 03:08:08;;;;;;;0.85;0.85;;;;;;;3.78;84.76;97394.91;5130616;28;20093;-60
2023/11/14 03:10:34;;;;;;;0.77;0.77;;;;;;;3.70;84.86;97384.03;5131917;27;20047;-60
2023/11/14 03:13:02;;;;;;;0.68;0.68;;;;;;;3.73;84.73;97392.22;5130980;28;20049;-58
2023/11/14 03:15:28;;;;;;;0.95;0.80;;;;;;;3.74;85.16;97387.78;5131514;27;20151;-58
2023/11/14 03:17:58;;;;;;;0.80;0.80;;;;;;;3.77;85.65;97393.34;5130910;28;20064;-59
2023/11/14 03:20:24;;;;;;;0.73;0.73;;;;;;;3.80;86.07;97389.44;5130604;28;20445;-59
2023/11/14 03:22:50;;;;;;;0.60;0.60;;;;;;;3.73;84.87;97396.66;5132100;27;20427;-60
2023/11/14 03:25:16;;;;;;;0.63;0.63;;;;;;;3.78;85.70;97389.66;5132025;27;20039;-59
2023/11/14 03:27:44;;;;;;;0.60;0.60;;;;;;;3.75;86.13;97391.97;5130701;28;20591;-59
2023/11/14 03:30:11;;;;;;;0.70;0.70;;;;;;;3.79;85.80;97398.31;5130858;28;20038;-59
2023/11/14 03:32:37;;;;;;;2.85;0.75;;;;;;;3.76;85.50;97396.97;5130845;28;20043;-58
2023/11/14 03:35:04;;;;;;;0.95;0.73;;;;;;;3.72;85.79;97405.56;5131539;27;20138;-58
2023/11/14 03:37:30;;;;;;;1.67;0.70;;;;;;;3.67;85.81;97408.13;5130383;28;20058;-59
2023/11/14 03:39:56;;;;;;;0.80;0.80;;;;;;;3.68;86.04;97407.88;5130773;28;20039;-58
2023/11/14 03:42:22;;;;;;;1.23;0.80;;;;;;;3.67;85.94;97402.88;5131623;27;20051;-60
2023/11/14 03:44:48;;;;;;;0.60;0.60;;;;;;;3.66;86.31;97407.31;5131986;27;20403;-60
2023/11/14 03:47:14;;;;;;;0.70;0.70;;;;;;;3.61;85.50;97402.78;5131442;27;20507;-58
2023/11/14 03:49:39;;;;;;;1.23;0.70;;;;;;;3.49;86.68;97396.88;5132013;27;20035;-59
2023/11/14 03:52:06;;;;;;;0.88;0.88;;;;;;;3.57;86.66;97395.69;5135282;27;20046;-58
2023/11/14 03:54:32;;;;;;;0.80;0.80;;;;;;;3.60;86.27;97405.66;5135358;27;20077;-57
2023/11/14 03:56:58;;;;;;;0.80;0.80;;;;;;;3.60;86.08;97400.44;5133184;27;20039;-59
2023/11/14 03:59:24;;;;;;;1.00;1.00;;;;;;;3.58;85.34;97405.91;5132406;27;20439;-62
2023/11/14 04:01:50;;;;;;;1.05;1.00;;;;;;;3.61;86.38;97402.78;5122478;27;20031;-59
2023/11/14 04:04:15;;;;;;;1.20;0.93;;;;;;;3.55;84.68;97403.75;5098965;27;20046;-62
2023/11/14 04:06:41;;;;;;;1.35;1.10;;;;;;;3.57;86.25;97400.91;5134988;27;20042;-60
2023/11/14 04:09:07;;;;;;;1.23;1.02;;;;;;;3.52;85.73;97406.06;5134461;27;20047;-60
2023/11/14 04:11:33;;;;;;;1.20;1.10;;;;;;;3.50;85.59;97398.47;5132882;27;20039;-59
2023/11/14 04:13:59;;;;;;;1.30;1.17;;;;;;;3.44;85.53;97407.25;5123150;27;20520;-58
2023/11/14 04:16:24;;;;;;;0.98;0.90;;;;;;;3.38;86.41;97400.34;5113699;27;20142;-58
2023/11/14 04:18:50;;;;;;;1.02;1.02;;;;;;;3.42;86.73;97398.88;5114098;28;20051;-59
2023/11/14 04:21:19;;;;;;;0.90;0.90;;;;;;;3.44;87.19;97406.47;5114142;28;20042;-60
2023/11/14 04:23:46;;;;;;;1.38;0.90;;;;;;;3.34;85.81;97407.91;5131974;27;20427;-56
2023/11/14 04:26:14;;;;;;;1.00;1.00;;;;;;;3.36;85.66;97405.06;5132799;27;20508;-60
2023/11/14 04:28:42;;;;;;;1.30;1.20;;;;;;;3.32;86.97;97402.09;5134397;27;20411;-61
2023/11/14 04:31:08;;;;;;;0.80;0.80;;;;;;;3.36;87.14;97407.69;5134012;27;20043;-61
2023/11/14 04:33:35;;;;;;;0.90;0.90;;;;;;;3.39;86.64;97413.22;5132740;27;20165;-59
2023/11/14 04:36:00;;;;;;;0.90;0.90;;;;;;;3.34;85.74;97413.16;5131132;27;20125;-59
2023/11/14 04:38:27;;;;;;;1.25;1.00;;;;;;;3.36;85.40;97413.72;5114758;27;20071;-59
2023/11/14 04:40:54;;;;;;;0.93;0.82;;;;;;;3.35;85.59;97416.56;5133112;27;20039;-60
2023/11/14 04:43:20;;;;;;;1.83;1.13;;;;;;;3.33;85.42;97416.81;5132194;27;20047;-60
2023/11/14 04:45:45;;;;;;;1.20;1.10;;;;;;;3.38;85.55;97427.38;5134355;27;20412;-61
2023/11/14 04:48:12;;;;;;;1.42;1.05;;;;;;;3.33;85.53;97427.28;5132480;27;20046;-59
2023/11/14 04:50:38;;;;;;;1.02;1.02;;;;;;;3.34;85.65;97417.59;5132741;27;20035;-59
2023/11/14 04:53:04;;;;;;;1.77;1.08;;;;;;;3.32;85.48;97427.50;5132568;27;20065;-57
2023/11/14 04:55:30;;;;;;;1.10;0.90;;;;;;;3.31;85.50;97425.94;5134313;27;20039;-60
2023/11/14 04:57:55;;;;;;;0.98;0.90;;;;;;;3.26;85.10;97431.06;5134037;27;20071;-59
2023/11/14 05:00:21;;;;;;;0.80;0.80;;;;;;;3.26;85.39;97431.88;5121661;27;20447;-60
2023/11/14 05:02:47;;;;;;;1.63;1.00;;;;;;;3.31;85.65;97424.09;5112064;28;20051;-60
2023/11/14 05:05:13;;;;;;;1.00;0.93;;;;;;;3.34;85.02;97426.25;5134204;27;20043;-59
2023/11/14 05:07:42;;;;;;;1.00;1.00;;;;;;;3.29;85.04;97436.63;5134082;27;20122;-57
2023/11/14 05:10:09;;;;;;;1.08;0.90;;;;;;;3.29;84.75;97435.84;5132117;27;20043;-60
2023/11/14 05:12:34;;;;;;;0.80;0.80;;;;;;;3.23;85.08;97442.81;5110168;27;20035;-60
2023/11/14 05:15:00;;;;;;;1.10;0.90;;;;;;;3.23;85.72;97436.78;5108738;27;20063;-59
2023/11/14 05:17:26;;;;;;;1.75;1.05;;;;;;;3.24;85.38;97439.19;5109755;28;20048;-60
2023/11/14 05:19:54;;;;;;;1.30;0.82;;;;;;;3.19;84.98;97444.34;5123788;27;20050;-60
2023/11/14 05:22:20;;;;;;;0.93;0.90;;;;;;;3.23;85.56;97442.03;5131156;27;20042;-61
2023/11/14 05:24:46;;;;;;;1.23;0.98;;;;;;;3.19;85.26;97444.34;5129839;27;20037;-61
2023/11/14 05:27:12;;;;;;;1.10;1.00;;;;;;;3.22;85.93;97446.47;5132255;27;20130;-61
2023/11/14 05:29:37;;;;;;;0.80;0.80;;;;;;;3.18;85.49;97445.38;5131950;27;20099;-62
2023/11/14 05:32:04;;;;;;;1.42;0.90;;;;;;;3.13;85.42;97450.53;5133471;27;20119;-61
2023/11/14 05:34:30;;;;;;;0.82;0.82;;;;;;;3.07;85.83;97446.22;5133262;27;20031;-60
2023/11/14 05:36:56;;;;;;;0.95;0.80;;;;;;;3.03;86.02;97445.09;5133348;27;20457;-60
2023/11/14 05:39:21;;;;;;;0.88;0.88;;;;;;;2.98;86.55;97447.66;5132895;27;20069;-60
2023/11/14 05:41:47;;;;;;;0.80;0.80;;;;;;;2.95;86.29;97446.28;5133061;27;20130;-60
2023/11/14 05:44:14;;;;;;;0.80;0.80;;;;;;;2.98;86.22;97455.50;5133077;27;20454;-59
2023/11/14 05:46:40;;;;;;;0.70;0.70;;;;;;;3.00;86.58;97454.25;5126795;27;20088;-61
2023/11/14 05:49:06;;;;;;;0.63;0.63;;;;;;;3.08;86.77;97450.44;5111878;28;20043;-59
2023/11/14 05:51:32;;;;;;;0.80;0.80;;;;;;;3.11;86.34;97452.56;5113291;27;20047;-61
2023/11/14 05:53:59;;;;;;;2.90;1.00;;;;;;;3.18;85.71;97454.00;5115365;27;20035;-60
2023/11/14 05:56:25;;;;;;;0.80;0.80;;;;;;;3.30;85.40;97463.63;5111933;28;20039;-60
2023/11/14 05:58:50;;;;;;;0.93;0.93;;;;;;;3.39;85.22;97456.97;5113953;27;20397;-59
2023/11/14 06:01:16;;;;;;;1.02;0.80;;;;;;;3.38;84.47;97458.78;5113221;27;20532;-61
2023/11/14 06:03:42;;;;;;;1.83;0.98;;;;;;;3.44;84.53;97464.88;5116378;27;20510;-60
2023/11/14 06:06:08;;;;;;;0.80;0.80;;;;;;;3.49;84.43;97454.50;5123969;27;20508;-60
2023/11/14 06:08:33;;;;;;;1.00;1.00;;;;;;;3.48;83.95;97458.16;5111855;27;20498;-58
2023/11/14 06:11:00;;;;;;;1.02;1.00;;;;;;;3.52;84.28;97467.09;5109612;27;20032;-58
2023/11/14 06:13:25;;;;;;;0.80;0.80;;;;;;;3.50;83.92;97468.38;5111362;28;20080;-60
2023/11/14 06:15:52;;;;;;;0.80;0.80;;;;;;;3.67;84.78;97468.38;5110405;27;20059;-59
2023/11/14 06:18:17;;;;;;;0.80;0.80;;;;;;;3.75;83.92;97463.53;5111492;28;20050;-59
2023/11/14 06:20:43;;;;;;;1.08;0.80;;;;;;;3.82;83.12;97465.97;5113611;27;20031;-58
2023/11/14 06:23:09;;;;;;;0.70;0.70;;;;;;;3.76;83.51;97462.47;5058482;28;20082;-57
2023/11/14 06:25:35;;;;;;;0.80;0.80;;;;;;;3.84;83.69;97469.94;5111787;27;20039;-60
2023/11/14 06:28:01;;;;;;;0.98;0.82;;;;;;;3.98;82.86;97472.25;5111295;28;20040;-60
2023/11/14 06:30:26;;;;;;;0.80;0.80;;;;;;;4.05;82.51;97468.41;5111098;27;20035;-59
2023/11/14 06:32:52;;;;;;;1.17;1.00;;;;;;;4.04;83.09;97469.44;5113519;28;20039;-60
2023/11/14 06:35:18;;;;;;;1.02;1.00;;;;;;;4.08;82.82;97467.91;5129262;27;20043;-60
2023/11/14 06:37:44;;;;;;;1.10;0.93;;;;;;;4.23;82.96;97469.94;5132154;27;20385;-60
2023/11/14 06:40:11;;;;;;;1.30;1.20;;;;;;;4.28;82.43;97467.38;5132203;27;20080;-61
2023/11/14 06:42:40;;;;;;;1.23;1.13;;;;;;;4.40;81.82;97461.22;5131673;27;20051;-60
2023/11/14 06:45:07;;;;;;;1.25;1.17;;;;;;;4.46;82.54;97476.78;5132190;27;20031;-57
2023/11/14 06:47:33;;;;;;;1.17;1.08;;;;;;;4.59;81.77;97470.38;5132251;27;20122;-63
2023/11/14 06:49:58;;;;;;;1.30;1.20;;;;;;;4.59;81.08;97472.19;5130376;28;20118;-61
2023/11/14 06:52:24;;;;;;;2.88;1.10;;;;;;;4.67;81.27;97474.38;5131883;28;20488;-59
2023/11/14 06:54:50;;;;;;;1.20;1.10;;;;;;;4.69;80.19;97478.34;5131913;28;20242;-61
2023/11/14 06:57:16;;;;;;;1.42;1.10;;;;;;;4.73;81.16;97483.91;5131708;27;20103;-60
2023/11/14 06:59:41;;;;;;;1.30;1.20;;;;;;;4.76;81.02;97478.16;5126386;27;20488;-61
2023/11/14 07:02:09;;;;;;;1.30;1.20;;;;;;;4.81;80.47;97469.56;5113766;28;20043;-59
2023/11/14 07:04:38;;;;;;;1.20;1.20;;;;;;;4.76;80.98;97476.34;5132044;27;20039;-60
2023/11/14 07:07:04;;;;;;;1.60;1.10;;;;;;;4.85;81.11;97470.63;5131778;28;20050;-60
2023/11/14 07:09:31;;;;;;;1.02;1.02;;;;;;;4.91;81.60;97472.28;5131645;27;20043;-60
2023/11/14 07:11:57;;;;;;;1.30;1.13;;;;;;;4.95;nan;97482.03;5131916;27;20143;-60
2023/11/14 07:14:24;;;;;;;2.33;1.30;;;;;;;5.00;80.42;97474.22;5130347;27;20503;-61
2023/11/14 07:16:51;;;;;;;1.48;1.20;;;;;;;5.02;80.81;97476.59;5110871;28;20130;-60
2023/11/14 07:19:17;;;;;;;1.50;1.10;;;;;;;4.94;79.68;97479.66;5112929;28;20036;-61
2023/11/14 07:21:45;;;;;;;3.95;1.40;;;;;;;4.82;80.87;97477.16;5110888;28;20032;-60
2023/11/14 07:24:11;;;;;;;2.25;1.40;;;;;;;4.87;81.17;97460.69;5111120;27;20420;-60
2023/11/14 07:26:37;;;;;;;2.95;2.20;;;;;;;4.93;81.00;97478.06;5113719;28;20040;-59
2023/11/14 07:29:04;;;;;;;1.30;1.20;;;;;;;4.95;80.53;97473.38;5117213;27;20405;-59
2023/11/14 07:31:30;;;;;;;2.83;1.38;;;;;;;5.03;81.88;97480.00;5114688;28;20038;-60
2023/11/14 07:33:56;;;;;;;1.45;1.27;;;;;;;5.13;80.95;97488.00;5115754;27;20044;-60
2023/11/14 07:36:24;;;;;;;1.20;1.10;;;;;;;5.26;80.53;97489.41;5114634;28;20439;-59
2023/11/14 07:38:50;;;;;;;1.45;1.27;;;;;;;5.31;79.16;97478.97;5117292;27;20404;-61
2023/11/14 07:41:15;;;;;;;1.48;1.35;;;;;;;5.41;79.26;97486.91;5116528;27;20035;-58
2023/11/14 07:43:41;;;;;;;1.85;1.35;;;;;;;5.42;78.64;97484.06;5115235;27;20052;-60
2023/11/14 07:46:08;;;;;;;1.92;1.40;;;;;;;5.36;79.27;97487.69;5114502;28;20047;-61
2023/11/14 07:48:35;;;;;;;2.03;1.17;;;;;;;5.50;78.93;97482.81;5120653;27;20046;-58
2023/11/14 07:51:02;;;;;;;3.33;1.30;;;;;;;5.54;78.61;97488.34;5114301;28;20495;-60
2023/11/14 07:53:28;;;;;;;1.23;1.13;;;;;;;5.55;78.05;97487.28;5116333;27;20040;-60
2023/11/14 07:55:55;;;;;;;1.15;1.08;;;;;;;5.63;78.02;97487.63;5114362;28;20047;-61
2023/11/14 07:58:23;;;;;;;1.48;1.20;;;;;;;5.65;78.10;97492.66;5116045;27;20031;-59
2023/11/14 08:00:49;;;;;;;1.00;1.00;;;;;;;5.63;77.77;97498.13;5111315;28;20027;-60
2023/11/14 08:03:15;;;;;;;2.65;1.08;;;;;;;5.57;77.59;97504.41;5115857;27;20476;-60
2023/11/14 08:05:41;;;;;;;1.98;1.20;;;;;;;5.46;78.55;97502.72;5115021;27;20043;-60
2023/11/14 08:08:10;;;;;;;1.83;1.40;;;;;;;5.50;79.82;97503.84;5114292;27;20050;-59
2023/11/14 08:10:37;;;;;;;2.58;1.33;;;;;;;5.58;78.78;97508.59;5114710;27;20039;-58
2023/11/14 08:13:04;;;;;;;1.65;1.25;;;;;;;5.56;77.97;97502.84;5115458;27;20039;-61
2023/11/14 08:15:29;;;;;;;2.00;1.20;;;;;;;5.50;78.69;97505.66;5115753;27;20128;-58
2023/11/14 08:17:55;;;;;;;1.02;1.02;;;;;;;5.57;80.08;97506.25;5115396;27;20183;-59
2023/11/14 08:20:21;;;;;;;1.40;1.30;;;;;;;5.54;79.36;97512.78;5114594;27;20043;-61
2023/11/14 08:22:48;;;;;;;1.90;1.10;;;;;;;5.64;78.30;97510.22;5115372;27;20530;-59
2023/11/14 08:25:13;;;;;;;1.05;1.05;;;;;;;5.67;78.70;97503.69;5123827;27;20486;-60
2023/11/14 08:27:40;;;;;;;1.10;1.00;;;;;;;5.52;77.92;97506.97;5132799;27;20054;-59
2023/11/14 08:30:06;;;;;;;1.45;1.00;;;;;;;5.58;79.66;97503.34;5134318;27;20039;-59
2023/11/14 08:32:32;;;;;;;0.82;0.82;;;;;;;5.66;79.21;97502.91;5133975;27;20099;-59
2023/11/14 08:34:58;;;;;;;1.20;1.10;;;;;;;5.67;79.24;97493.97;5133762;27;20050;-58
2023/11/14 08:37:24;;;;;;;1.10;1.02;;;;;;;5.64;79.07;97493.66;5133593;27;20084;-60
2023/11/14 08:39:50;;;;;;;1.02;0.93;;;;;;;5.68;79.95;97485.03;5122766;27;20066;-61
2023/11/14 08:42:15;;;;;;;2.47;1.05;;;;;;;5.74;79.26;97490.34;5121928;27;20093;-58
2023/11/14 08:44:42;;;;;;;2.00;1.08;;;;;;;5.72;79.08;97481.91;5132780;27;20050;-62
2023/11/14 08:47:08;;;;;;;1.35;1.10;;;;;;;5.77;78.32;97487.22;5131926;27;20055;-58
2023/11/14 08:49:34;;;;;;;1.25;1.15;;;;;;;5.66;78.73;97484.50;5130517;27;20039;-61
2023/11/14 08:51:59;;;;;;;1.52;1.20;;;;;;;5.69;78.47;97485.84;5131911;27;20047;-59
2023/11/14 08:54:25;;;;;;;1.30;1.15;;;;;;;5.67;78.39;97491.31;5133335;27;20389;-60
2023/11/14 08:56:51;;;;;;;1.80;1.40;;;;;;;5.75;78.74;97487.44;5132663;27;20043;-59
2023/11/14 08:59:16;;;;;;;1.30;1.20;;;;;;;5.81;79.29;97490.91;5131921;27;20081;-62
2023/11/14 09:01:44;;;;;;;1.25;1.15;;;;;;;5.75;78.90;97484.03;5126828;27;20039;-59
2023/11/14 09:04:10;;;;;;;2.92;1.50;;;;;;;5.79;79.21;97483.25;5132418;27;20038;-59
2023/11/14 09:06:37;;;;;;;1.77;1.25;;;;;;;5.86;78.93;97481.22;5133276;27;20039;-59
2023/11/14 09:09:03;;;;;;;1.40;1.30;;;;;;;5.88;78.67;97475.69;5133876;27;20042;-60
2023/11/14 09:11:29;;;;;;;1.73;1.30;;;;;;;5.86;78.94;97480.44;5133230;27;20043;-60
2023/11/14 09:13:59;;;;;;;2.47;1.52;;;;;;;5.94;79.46;97481.81;5133942;27;20047;-59
2023/11/14 09:16:25;;;;;;;1.75;1.40;;;;;;;6.07;78.50;97482.16;5131802;27;20524;-59
2023/11/14 09:18:52;;;;;;;2.03;1.20;;;;;;;6.16;78.37;97479.06;5131422;27;20514;-61
2023/11/14 09:21:17;;;;;;;1.65;1.27;;;;;;;6.16;78.70;97482.47;5133574;27;20047;-60
2023/11/14 09:23:43;;;;;;;2.63;1.40;;;;;;;6.12;78.40;97471.69;5131818;27;20053;-59
2023/11/14 09:26:10;;;;;;;1.30;1.20;;;;;;;6.06;78.41;97464.81;5133484;27;20092;-60
2023/11/14 09:28:39;;;;;;;1.65;1.40;;;;;;;6.06;78.30;97470.06;5133544;27;20047;-59
2023/11/14 09:31:06;;;;;;;1.50;1.38;;;;;;;6.04;78.69;97468.72;5133183;27;20551;-60
2023/11/14 09:33:35;;;;;;;1.42;1.33;;;;;;;6.01;78.43;97470.03;5112364;27;20036;-62
2023/11/14 09:36:01;;;;;;;1.88;1.20;;;;;;;5.81;78.09;97477.75;5112527;28;20142;-61
2023/11/14 09:38:27;;;;;;;4.70;1.42;;;;;;;5.93;79.93;97481.03;5131091;27;20114;-61
2023/11/14 09:40:53;;;;;;;1.55;1.20;;;;;;;5.95;78.34;97476.31;5131846;27;20095;-63
2023/11/14 09:43:21;;;;;;;3.63;1.23;;;;;;;5.99;78.72;97468.69;5132811;27;20047;-60
2023/11/14 09:45:48;;;;;;;1.30;1.20;;;;;;;5.95;78.58;97475.53;5132039;27;20042;-60
2023/11/14 09:48:14;;;;;;;2.33;1.20;;;;;;;5.86;78.07;97473.34;5132473;27;20039;-61
2023/11/14 09:50:41;;;;;;;2.67;1.15;;;;;;;5.82;78.20;97488.00;5133134;27;20074;-63
2023/11/14 09:53:07;;;;;;;1.58;1.10;;;;;;;5.82;79.61;97482.75;5132449;27;20402;-61
2023/11/14 09:55:33;;;;;;;1.23;1.13;;;;;;;5.92;79.48;97487.31;5131318;27;20043;-60
2023/11/14 09:58:02;;;;;;;1.30;1.20;;;;;;;5.96;78.69;97480.50;5127857;27;20081;-61
2023/11/14 10:00:29;;;;;;;2.25;1.08;;;;;;;5.97;78.49;97484.75;5121266;27;20116;-61
2023/11/14 10:02:59;;;;;;;1.40;1.30;;;;;;;5.98;78.52;97486.31;5125068;27;20403;-62
2023/11/14 10:05:24;;;;;;;1.23;1.13;;;;;;;5.94;79.43;97485.22;5131215;27;20070;-61
2023/11/14 10:07:50;;;;;;;1.45;1.00;;;;;;;6.02;79.69;97483.97;5130506;27;20074;-61
2023/11/14 10:10:17;;;;;;;1.92;1.20;;;;;;;6.03;79.13;97485.53;5132479;27;20039;-62
2023/11/14 10:12:43;;;;;;;0.90;0.90;;;;;;;5.98;78.74;97486.31;5132198;27;20130;-61
2023/11/14 10:15:10;;;;;;;0.75;0.75;;;;;;;5.87;78.38;97490.69;5132125;27;20057;-61
2023/11/14 10:17:46;;;;;;;1.20;1.00;;;;;;;5.88;79.61;97489.66;5132245;27;20383;-59
2023/11/14 10:20:14;;;;;;;1.08;1.00;;;;;;;5.90;79.48;97482.28;5114262;27;20054;-60
2023/11/14 10:22:47;;;;;;;1.15;1.00;;;;;;;5.88;79.48;97494.09;5112342;28;20085;-61
2023/11/14 10:25:37;;;;;;;1.58;1.00;;;;;;;5.93;79.26;97488.91;5091683;28;20035;-62
2023/11/14 10:28:04;;;;;;;1.10;1.00;;;;;;;5.86;79.26;97486.47;5108391;27;20058;-60
2023/11/14 10:30:39;;;;;;;1.20;1.10;;;;;;;5.89;79.23;97495.69;5132403;27;20039;-62
2023/11/14 10:33:05;;;;;;;1.27;1.15;;;;;;;5.87;79.50;97492.53;5132164;27;20058;-61
2023/11/14 10:35:31;;;;;;;1.50;0.88;;;;;;;5.79;78.63;97493.78;5130889;27;20419;-63
2023/11/14 10:38:29;;;;;;;0.80;0.80;;;;;;;5.64;79.67;97494.47;5132206;27;20081;-60
2023/11/14 10:40:55;;;;;;;2.15;1.02;;;;;;;5.69;79.73;97494.50;5129159;27;20439;-61
2023/11/14 10:43:29;;;;;;;0.88;0.88;;;;;;;5.74;78.76;97501.66;5130760;28;20042;-61
2023/11/14 10:45:55;;;;;;;1.00;1.00;;;;;;;5.82;79.59;97498.53;5131100;28;20047;-61
2023/11/14 10:48:21;;;;;;;1.00;0.90;;;;;;;5.83;79.79;97491.47;5130825;28;20118;-62
2023/11/14 10:50:49;;;;;;;1.25;1.10;;;;;;;5.80;80.13;97497.22;5131769;27;20131;-60
2023/11/14 10:53:15;;;;;;;1.77;1.08;;;;;;;5.74;79.68;97501.66;5131758;28;20050;-61
2023/11/14 10:55:42;;;;;;;1.08;1.08;;;;;;;5.73;80.23;97500.03;5131634;27;20568;-62
2023/11/14 10:58:09;;;;;;;1.10;1.00;;;;;;;5.72;80.53;97497.69;5131879;27;20130;-63
2023/11/14 11:00:37;;;;;;;1.10;0.98;;;;;;;5.67;80.23;97498.44;5122670;27;20593;-63
2023/11/14 11:03:04;;;;;;;1.20;1.10;;;;;;;5.66;80.64;97502.91;5129494;27;20054;-61
2023/11/14 11:05:32;;;;;;;1.20;1.05;;;;;;;5.64;80.39;97504.19;5134576;27;20450;-62
2023/11/14 11:08:13;;;;;;;1.48;1.05;;;;;;;5.71;80.49;97504.78;5134920;27;20210;-61
2023/11/14 11:10:40;;;;;;;1.15;1.00;;;;;;;5.73;79.27;97507.16;5133803;27;20071;-61
2023/11/14 11:13:23;;;;;;;1.58;1.10;;;;;;;5.69;78.52;97507.66;5132166;27;20069;-59
2023/11/14 11:15:50;;;;;;;1.20;1.10;;;;;;;5.75;79.02;97502.44;5133229;27;20098;-61
2023/11/14 11:18:23;;;;;;;0.90;0.90;;;;;;;5.73;79.90;97504.50;5132635;27;20070;-60
2023/11/14 11:20:49;;;;;;;1.30;1.20;;;;;;;5.60;79.78;97505.75;5116768;27;20512;-62
2023/11/14 11:23:15;;;;;;;1.10;1.00;;;;;;;5.51;80.54;97515.91;5112685;27;20042;-61
2023/11/14 11:25:42;;;;;;;1.73;1.40;;;;;;;5.46;80.93;97516.66;5115831;27;20035;-62
2023/11/14 11:28:20;;;;;;;1.20;1.10;;;;;;;5.46;80.50;97524.53;5110860;27;20136;-63
2023/11/14 11:31:11;;;;;;;1.23;1.13;;;;;;;5.32;78.50;97520.72;5114506;27;20046;-61
2023/11/14 11:33:44;;;;;;;1.10;1.00;;;;;;;5.03;79.64;97535.16;5093597;28;20093;-61
2023/11/14 11:36:25;;;;;;;0.90;0.90;;;;;;;4.87;81.83;97542.06;5112834;28;20074;-62
2023/11/14 11:39:03;;;;;;;1.73;0.90;;;;;;;4.67;82.94;97535.53;5110821;28;20036;-61
2023/11/14 11:41:34;;;;;;;1.73;1.00;;;;;;;4.64;82.45;97540.50;5115815;27;20035;-60